sensor_id;sensor_type;location;lat;lon;timestamp;P1;durP1;ratioP1;P2;durP2;ratioP2
59530;SDS011;45349;48.692;8.186;2024-01-27T00:00:26;7.67;;;2.70;;
59530;SDS011;45349;48.692;8.186;2024-01-27T00:02:53;7.03;;;2.57;;
59530;SDS011;45349;48.692;8.186;2024-01-27T00:05:19;6.23;;;2.23;;
59530;SDS011;45349;48.692;8.186;2024-01-27T00:07:46;10.90;;;2.63;;
59530;SDS011;45349;48.692;8.186;2024-01-27T00:10:14;8.17;;;2.40;;
59530;SDS011;45349;48.692;8.186;2024-01-27T00:12:41;5.27;;;2.20;;
59530;SDS011;45349;48.692;8.186;2024-01-27T00:15:08;6.17;;;1.93;;
59530;SDS011;45349;48.692;8.186;2024-01-27T00:17:34;7.33;;;2.20;;
59530;SDS011;45349;48.692;8.186;2024-01-27T00:20:01;10.13;;;2.37;;
59530;SDS011;45349;48.692;8.186;2024-01-27T00:22:28;6.10;;;2.20;;
59530;SDS011;45349;48.692;8.186;2024-01-27T00:24:54;5.07;;;2.17;;
59530;SDS011;45349;48.692;8.186;2024-01-27T00:27:22;6.60;;;2.33;;
59530;SDS011;45349;48.692;8.186;2024-01-27T00:29:50;8.40;;;2.37;;
59530;SDS011;45349;48.692;8.186;2024-01-27T00:32:16;9.33;;;2.30;;
59530;SDS011;45349;48.692;8.186;2024-01-27T00:34:43;4.83;;;1.87;;
59530;SDS011;45349;48.692;8.186;2024-01-27T00:37:09;9.53;;;2.30;;
59530;SDS011;45349;48.692;8.186;2024-01-27T00:39:36;7.57;;;2.33;;
59530;SDS011;45349;48.692;8.186;2024-01-27T00:42:03;6.43;;;2.53;;
59530;SDS011;45349;48.692;8.186;2024-01-27T00:44:31;9.03;;;2.53;;
59530;SDS011;45349;48.692;8.186;2024-01-27T00:46:57;5.87;;;2.20;;
59530;SDS011;45349;48.692;8.186;2024-01-27T00:49:24;6.93;;;2.30;;
59530;SDS011;45349;48.692;8.186;2024-01-27T00:51:51;6.97;;;2.03;;
59530;SDS011;45349;48.692;8.186;2024-01-27T00:54:17;11.67;;;2.57;;
59530;SDS011;45349;48.692;8.186;2024-01-27T00:56:44;8.20;;;2.20;;
59530;SDS011;45349;48.692;8.186;2024-01-27T00:59:11;6.90;;;2.43;;
59530;SDS011;45349;48.692;8.186;2024-01-27T01:01:39;10.50;;;2.40;;
59530;SDS011;45349;48.692;8.186;2024-01-27T01:04:06;6.10;;;2.10;;
59530;SDS011;45349;48.692;8.186;2024-01-27T01:06:33;6.93;;;2.33;;
59530;SDS011;45349;48.692;8.186;2024-01-27T01:09:00;7.03;;;2.40;;
59530;SDS011;45349;48.692;8.186;2024-01-27T01:11:27;9.90;;;2.80;;
59530;SDS011;45349;48.692;8.186;2024-01-27T01:13:54;6.83;;;2.70;;
59530;SDS011;45349;48.692;8.186;2024-01-27T01:16:20;9.13;;;2.27;;
59530;SDS011;45349;48.692;8.186;2024-01-27T01:18:48;7.47;;;2.27;;
59530;SDS011;45349;48.692;8.186;2024-01-27T01:21:15;7.07;;;1.93;;
59530;SDS011;45349;48.692;8.186;2024-01-27T01:23:41;9.17;;;1.67;;
59530;SDS011;45349;48.692;8.186;2024-01-27T01:26:08;6.27;;;2.00;;
59530;SDS011;45349;48.692;8.186;2024-01-27T01:28:35;7.30;;;2.60;;
59530;SDS011;45349;48.692;8.186;2024-01-27T01:31:02;8.37;;;2.30;;
59530;SDS011;45349;48.692;8.186;2024-01-27T01:33:29;8.53;;;2.33;;
59530;SDS011;45349;48.692;8.186;2024-01-27T01:35:57;10.57;;;2.10;;
59530;SDS011;45349;48.692;8.186;2024-01-27T01:38:26;5.43;;;2.30;;
59530;SDS011;45349;48.692;8.186;2024-01-27T01:40:53;8.10;;;2.37;;
59530;SDS011;45349;48.692;8.186;2024-01-27T01:43:19;6.50;;;2.50;;
59530;SDS011;45349;48.692;8.186;2024-01-27T01:45:46;6.77;;;2.10;;
59530;SDS011;45349;48.692;8.186;2024-01-27T01:48:15;5.60;;;2.20;;
59530;SDS011;45349;48.692;8.186;2024-01-27T01:50:42;5.37;;;1.97;;
59530;SDS011;45349;48.692;8.186;2024-01-27T01:53:10;6.17;;;2.17;;
59530;SDS011;45349;48.692;8.186;2024-01-27T01:55:37;11.90;;;2.10;;
59530;SDS011;45349;48.692;8.186;2024-01-27T01:58:04;8.23;;;1.90;;
59530;SDS011;45349;48.692;8.186;2024-01-27T02:00:31;7.70;;;2.20;;
59530;SDS011;45349;48.692;8.186;2024-01-27T02:02:58;13.77;;;2.43;;
59530;SDS011;45349;48.692;8.186;2024-01-27T02:05:24;6.23;;;2.13;;
59530;SDS011;45349;48.692;8.186;2024-01-27T02:07:51;6.50;;;1.80;;
59530;SDS011;45349;48.692;8.186;2024-01-27T02:10:22;5.87;;;1.90;;
59530;SDS011;45349;48.692;8.186;2024-01-27T02:12:49;4.03;;;1.80;;
59530;SDS011;45349;48.692;8.186;2024-01-27T02:15:16;6.37;;;2.27;;
59530;SDS011;45349;48.692;8.186;2024-01-27T02:17:42;13.63;;;2.13;;
59530;SDS011;45349;48.692;8.186;2024-01-27T02:20:09;6.90;;;1.80;;
59530;SDS011;45349;48.692;8.186;2024-01-27T02:22:36;5.90;;;1.80;;
59530;SDS011;45349;48.692;8.186;2024-01-27T02:25:03;7.47;;;1.83;;
59530;SDS011;45349;48.692;8.186;2024-01-27T02:27:31;3.57;;;1.80;;
59530;SDS011;45349;48.692;8.186;2024-01-27T02:29:57;8.13;;;1.77;;
59530;SDS011;45349;48.692;8.186;2024-01-27T02:32:24;7.00;;;1.90;;
59530;SDS011;45349;48.692;8.186;2024-01-27T02:34:51;8.83;;;2.10;;
59530;SDS011;45349;48.692;8.186;2024-01-27T02:37:17;6.83;;;2.03;;
59530;SDS011;45349;48.692;8.186;2024-01-27T02:39:44;9.33;;;2.40;;
59530;SDS011;45349;48.692;8.186;2024-01-27T02:42:12;4.87;;;1.70;;
59530;SDS011;45349;48.692;8.186;2024-01-27T02:44:39;6.00;;;1.87;;
59530;SDS011;45349;48.692;8.186;2024-01-27T02:47:06;10.00;;;2.37;;
59530;SDS011;45349;48.692;8.186;2024-01-27T02:49:32;6.00;;;1.87;;
59530;SDS011;45349;48.692;8.186;2024-01-27T02:51:59;7.40;;;1.90;;
59530;SDS011;45349;48.692;8.186;2024-01-27T02:54:25;7.27;;;2.00;;
59530;SDS011;45349;48.692;8.186;2024-01-27T02:56:52;8.83;;;1.50;;
59530;SDS011;45349;48.692;8.186;2024-01-27T02:59:20;10.17;;;2.17;;
59530;SDS011;45349;48.692;8.186;2024-01-27T03:01:47;8.67;;;2.03;;
59530;SDS011;45349;48.692;8.186;2024-01-27T03:04:13;4.80;;;1.93;;
59530;SDS011;45349;48.692;8.186;2024-01-27T03:06:40;8.67;;;1.70;;
59530;SDS011;45349;48.692;8.186;2024-01-27T03:09:07;9.00;;;1.50;;
59530;SDS011;45349;48.692;8.186;2024-01-27T03:11:33;6.50;;;1.83;;
59530;SDS011;45349;48.692;8.186;2024-01-27T03:14:00;7.40;;;2.33;;
59530;SDS011;45349;48.692;8.186;2024-01-27T03:16:28;9.77;;;1.97;;
59530;SDS011;45349;48.692;8.186;2024-01-27T03:18:54;11.40;;;2.70;;
59530;SDS011;45349;48.692;8.186;2024-01-27T03:21:21;5.00;;;1.53;;
59530;SDS011;45349;48.692;8.186;2024-01-27T03:23:48;8.27;;;1.73;;
59530;SDS011;45349;48.692;8.186;2024-01-27T03:26:14;10.60;;;2.20;;
59530;SDS011;45349;48.692;8.186;2024-01-27T03:28:41;10.33;;;1.90;;
59530;SDS011;45349;48.692;8.186;2024-01-27T03:31:08;4.83;;;1.80;;
59530;SDS011;45349;48.692;8.186;2024-01-27T03:33:35;4.73;;;1.50;;
59530;SDS011;45349;48.692;8.186;2024-01-27T03:36:02;7.63;;;1.80;;
59530;SDS011;45349;48.692;8.186;2024-01-27T03:38:29;7.83;;;1.73;;
59530;SDS011;45349;48.692;8.186;2024-01-27T03:40:55;5.90;;;1.70;;
59530;SDS011;45349;48.692;8.186;2024-01-27T03:43:26;7.77;;;1.83;;
59530;SDS011;45349;48.692;8.186;2024-01-27T03:45:52;7.20;;;2.10;;
59530;SDS011;45349;48.692;8.186;2024-01-27T03:48:19;9.57;;;1.93;;
59530;SDS011;45349;48.692;8.186;2024-01-27T03:50:47;6.03;;;2.07;;
59530;SDS011;45349;48.692;8.186;2024-01-27T03:53:14;7.83;;;1.87;;
59530;SDS011;45349;48.692;8.186;2024-01-27T03:55:40;11.60;;;2.00;;
59530;SDS011;45349;48.692;8.186;2024-01-27T03:58:07;9.67;;;1.90;;
59530;SDS011;45349;48.692;8.186;2024-01-27T04:00:34;6.67;;;1.87;;
59530;SDS011;45349;48.692;8.186;2024-01-27T04:03:00;7.30;;;1.50;;
59530;SDS011;45349;48.692;8.186;2024-01-27T04:05:28;7.53;;;2.10;;
59530;SDS011;45349;48.692;8.186;2024-01-27T04:07:57;11.03;;;1.83;;
59530;SDS011;45349;48.692;8.186;2024-01-27T04:10:23;3.30;;;1.77;;
59530;SDS011;45349;48.692;8.186;2024-01-27T04:12:50;6.07;;;1.70;;
59530;SDS011;45349;48.692;8.186;2024-01-27T04:15:17;6.87;;;1.50;;
59530;SDS011;45349;48.692;8.186;2024-01-27T04:17:43;4.47;;;1.33;;
59530;SDS011;45349;48.692;8.186;2024-01-27T04:20:10;6.10;;;1.93;;
59530;SDS011;45349;48.692;8.186;2024-01-27T04:22:38;4.20;;;1.97;;
59530;SDS011;45349;48.692;8.186;2024-01-27T04:25:07;9.23;;;2.10;;
59530;SDS011;45349;48.692;8.186;2024-01-27T04:27:36;7.70;;;1.87;;
59530;SDS011;45349;48.692;8.186;2024-01-27T04:32:53;8.70;;;2.03;;
59530;SDS011;45349;48.692;8.186;2024-01-27T04:35:19;4.50;;;1.80;;
59530;SDS011;45349;48.692;8.186;2024-01-27T04:37:46;5.93;;;2.03;;
59530;SDS011;45349;48.692;8.186;2024-01-27T04:40:14;10.53;;;1.90;;
59530;SDS011;45349;48.692;8.186;2024-01-27T04:42:41;10.90;;;1.70;;
59530;SDS011;45349;48.692;8.186;2024-01-27T04:45:07;7.43;;;1.90;;
59530;SDS011;45349;48.692;8.186;2024-01-27T04:47:35;4.77;;;2.10;;
59530;SDS011;45349;48.692;8.186;2024-01-27T04:50:01;14.53;;;1.90;;
59530;SDS011;45349;48.692;8.186;2024-01-27T04:52:28;7.67;;;1.73;;
59530;SDS011;45349;48.692;8.186;2024-01-27T04:54:55;5.30;;;1.90;;
59530;SDS011;45349;48.692;8.186;2024-01-27T04:57:23;5.93;;;1.73;;
59530;SDS011;45349;48.692;8.186;2024-01-27T04:59:49;5.37;;;1.87;;
59530;SDS011;45349;48.692;8.186;2024-01-27T05:02:17;7.33;;;2.03;;
59530;SDS011;45349;48.692;8.186;2024-01-27T05:04:44;7.43;;;1.50;;
59530;SDS011;45349;48.692;8.186;2024-01-27T05:07:10;4.97;;;1.60;;
59530;SDS011;45349;48.692;8.186;2024-01-27T05:09:37;6.87;;;2.03;;
59530;SDS011;45349;48.692;8.186;2024-01-27T05:12:04;10.00;;;2.37;;
59530;SDS011;45349;48.692;8.186;2024-01-27T05:14:32;12.57;;;2.27;;
59530;SDS011;45349;48.692;8.186;2024-01-27T05:16:59;7.43;;;1.70;;
59530;SDS011;45349;48.692;8.186;2024-01-27T05:19:25;12.00;;;2.17;;
59530;SDS011;45349;48.692;8.186;2024-01-27T05:21:52;8.63;;;1.83;;
59530;SDS011;45349;48.692;8.186;2024-01-27T05:24:19;10.17;;;1.93;;
59530;SDS011;45349;48.692;8.186;2024-01-27T05:26:45;3.67;;;2.07;;
59530;SDS011;45349;48.692;8.186;2024-01-27T05:29:12;7.10;;;2.00;;
59530;SDS011;45349;48.692;8.186;2024-01-27T05:31:40;7.50;;;1.83;;
59530;SDS011;45349;48.692;8.186;2024-01-27T05:34:08;8.83;;;2.40;;
59530;SDS011;45349;48.692;8.186;2024-01-27T05:36:35;5.70;;;2.10;;
59530;SDS011;45349;48.692;8.186;2024-01-27T05:39:01;7.87;;;1.97;;
59530;SDS011;45349;48.692;8.186;2024-01-27T05:41:29;7.70;;;2.03;;
59530;SDS011;45349;48.692;8.186;2024-01-27T05:43:56;7.10;;;2.27;;
59530;SDS011;45349;48.692;8.186;2024-01-27T05:46:24;6.17;;;1.97;;
59530;SDS011;45349;48.692;8.186;2024-01-27T05:48:52;6.03;;;1.83;;
59530;SDS011;45349;48.692;8.186;2024-01-27T05:51:23;6.83;;;1.57;;
59530;SDS011;45349;48.692;8.186;2024-01-27T05:53:49;9.90;;;2.97;;
59530;SDS011;45349;48.692;8.186;2024-01-27T05:56:16;7.00;;;1.80;;
59530;SDS011;45349;48.692;8.186;2024-01-27T05:58:43;8.27;;;1.73;;
59530;SDS011;45349;48.692;8.186;2024-01-27T06:01:10;9.33;;;1.97;;
59530;SDS011;45349;48.692;8.186;2024-01-27T06:03:37;13.50;;;3.33;;
59530;SDS011;45349;48.692;8.186;2024-01-27T06:06:05;10.63;;;2.07;;
59530;SDS011;45349;48.692;8.186;2024-01-27T06:08:32;9.97;;;2.30;;
59530;SDS011;45349;48.692;8.186;2024-01-27T06:10:58;12.97;;;2.63;;
59530;SDS011;45349;48.692;8.186;2024-01-27T06:13:27;9.87;;;2.13;;
59530;SDS011;45349;48.692;8.186;2024-01-27T06:15:54;6.67;;;2.20;;
59530;SDS011;45349;48.692;8.186;2024-01-27T06:18:21;9.23;;;2.13;;
59530;SDS011;45349;48.692;8.186;2024-01-27T06:20:49;12.03;;;2.10;;
59530;SDS011;45349;48.692;8.186;2024-01-27T06:23:17;9.83;;;2.60;;
59530;SDS011;45349;48.692;8.186;2024-01-27T06:25:44;9.80;;;2.40;;
59530;SDS011;45349;48.692;8.186;2024-01-27T06:28:11;11.37;;;2.20;;
59530;SDS011;45349;48.692;8.186;2024-01-27T06:30:37;9.57;;;2.93;;
59530;SDS011;45349;48.692;8.186;2024-01-27T06:33:04;9.57;;;2.40;;
59530;SDS011;45349;48.692;8.186;2024-01-27T06:35:31;7.80;;;2.83;;
59530;SDS011;45349;48.692;8.186;2024-01-27T06:37:57;10.03;;;2.30;;
59530;SDS011;45349;48.692;8.186;2024-01-27T06:40:25;10.67;;;2.40;;
59530;SDS011;45349;48.692;8.186;2024-01-27T06:42:52;11.87;;;2.90;;
59530;SDS011;45349;48.692;8.186;2024-01-27T06:45:19;11.23;;;2.00;;
59530;SDS011;45349;48.692;8.186;2024-01-27T06:47:46;8.97;;;2.10;;
59530;SDS011;45349;48.692;8.186;2024-01-27T06:50:12;8.17;;;2.17;;
59530;SDS011;45349;48.692;8.186;2024-01-27T06:52:40;5.80;;;1.83;;
59530;SDS011;45349;48.692;8.186;2024-01-27T06:55:07;10.93;;;2.40;;
59530;SDS011;45349;48.692;8.186;2024-01-27T06:57:37;8.20;;;2.30;;
59530;SDS011;45349;48.692;8.186;2024-01-27T07:00:06;5.13;;;2.20;;
59530;SDS011;45349;48.692;8.186;2024-01-27T07:02:34;7.17;;;1.63;;
59530;SDS011;45349;48.692;8.186;2024-01-27T07:05:00;13.37;;;2.20;;
59530;SDS011;45349;48.692;8.186;2024-01-27T07:07:27;11.27;;;2.30;;
59530;SDS011;45349;48.692;8.186;2024-01-27T07:09:55;5.87;;;1.70;;
59530;SDS011;45349;48.692;8.186;2024-01-27T07:12:22;5.77;;;1.90;;
59530;SDS011;45349;48.692;8.186;2024-01-27T07:14:51;9.03;;;2.17;;
59530;SDS011;45349;48.692;8.186;2024-01-27T07:17:20;11.63;;;2.33;;
59530;SDS011;45349;48.692;8.186;2024-01-27T07:19:46;7.97;;;1.93;;
59530;SDS011;45349;48.692;8.186;2024-01-27T07:22:13;5.50;;;1.90;;
59530;SDS011;45349;48.692;8.186;2024-01-27T07:24:40;8.10;;;2.23;;
59530;SDS011;45349;48.692;8.186;2024-01-27T07:27:06;9.70;;;3.17;;
59530;SDS011;45349;48.692;8.186;2024-01-27T07:29:33;8.10;;;2.40;;
59530;SDS011;45349;48.692;8.186;2024-01-27T07:32:01;7.43;;;2.10;;
59530;SDS011;45349;48.692;8.186;2024-01-27T07:34:28;8.77;;;2.40;;
59530;SDS011;45349;48.692;8.186;2024-01-27T07:36:54;10.00;;;4.00;;
59530;SDS011;45349;48.692;8.186;2024-01-27T07:39:21;11.83;;;3.53;;
59530;SDS011;45349;48.692;8.186;2024-01-27T07:41:48;6.20;;;3.50;;
59530;SDS011;45349;48.692;8.186;2024-01-27T07:44:14;10.90;;;4.73;;
59530;SDS011;45349;48.692;8.186;2024-01-27T07:46:41;8.43;;;2.80;;
59530;SDS011;45349;48.692;8.186;2024-01-27T07:49:09;11.37;;;4.47;;
59530;SDS011;45349;48.692;8.186;2024-01-27T07:51:38;13.77;;;2.77;;
59530;SDS011;45349;48.692;8.186;2024-01-27T07:54:04;11.10;;;2.27;;
59530;SDS011;45349;48.692;8.186;2024-01-27T07:56:31;9.03;;;2.00;;
59530;SDS011;45349;48.692;8.186;2024-01-27T07:58:58;6.07;;;1.67;;
59530;SDS011;45349;48.692;8.186;2024-01-27T08:01:25;11.10;;;1.87;;
59530;SDS011;45349;48.692;8.186;2024-01-27T08:03:51;8.90;;;1.67;;
59530;SDS011;45349;48.692;8.186;2024-01-27T08:06:22;5.83;;;2.07;;
59530;SDS011;45349;48.692;8.186;2024-01-27T08:08:54;19.67;;;6.30;;
59530;SDS011;45349;48.692;8.186;2024-01-27T08:11:21;10.67;;;3.20;;
59530;SDS011;45349;48.692;8.186;2024-01-27T08:13:47;5.70;;;1.83;;
59530;SDS011;45349;48.692;8.186;2024-01-27T08:16:14;2.90;;;1.37;;
59530;SDS011;45349;48.692;8.186;2024-01-27T08:18:41;5.60;;;1.73;;
59530;SDS011;45349;48.692;8.186;2024-01-27T08:21:09;3.83;;;1.83;;
59530;SDS011;45349;48.692;8.186;2024-01-27T08:23:38;5.97;;;1.03;;
59530;SDS011;45349;48.692;8.186;2024-01-27T08:26:05;6.03;;;1.80;;
59530;SDS011;45349;48.692;8.186;2024-01-27T08:28:34;5.47;;;1.43;;
59530;SDS011;45349;48.692;8.186;2024-01-27T08:31:01;18.50;;;8.97;;
59530;SDS011;45349;48.692;8.186;2024-01-27T08:33:28;8.60;;;4.40;;
59530;SDS011;45349;48.692;8.186;2024-01-27T08:35:55;20.80;;;9.20;;
59530;SDS011;45349;48.692;8.186;2024-01-27T08:38:21;29.93;;;15.27;;
59530;SDS011;45349;48.692;8.186;2024-01-27T08:40:49;20.77;;;8.93;;
59530;SDS011;45349;48.692;8.186;2024-01-27T08:43:16;20.60;;;8.67;;
59530;SDS011;45349;48.692;8.186;2024-01-27T08:45:43;14.47;;;7.17;;
59530;SDS011;45349;48.692;8.186;2024-01-27T08:48:09;14.73;;;6.90;;
59530;SDS011;45349;48.692;8.186;2024-01-27T08:50:36;15.53;;;9.00;;
59530;SDS011;45349;48.692;8.186;2024-01-27T08:53:03;11.10;;;4.33;;
59530;SDS011;45349;48.692;8.186;2024-01-27T08:55:30;7.90;;;2.97;;
59530;SDS011;45349;48.692;8.186;2024-01-27T08:57:58;6.80;;;2.23;;
59530;SDS011;45349;48.692;8.186;2024-01-27T09:00:25;7.67;;;2.33;;
59530;SDS011;45349;48.692;8.186;2024-01-27T09:02:51;5.13;;;1.63;;
59530;SDS011;45349;48.692;8.186;2024-01-27T09:05:18;4.10;;;1.60;;
59530;SDS011;45349;48.692;8.186;2024-01-27T09:07:45;9.73;;;1.50;;
59530;SDS011;45349;48.692;8.186;2024-01-27T09:10:11;7.70;;;1.57;;
59530;SDS011;45349;48.692;8.186;2024-01-27T09:12:40;3.73;;;1.53;;
59530;SDS011;45349;48.692;8.186;2024-01-27T09:15:09;4.83;;;1.40;;
59530;SDS011;45349;48.692;8.186;2024-01-27T09:17:35;6.03;;;1.50;;
59530;SDS011;45349;48.692;8.186;2024-01-27T09:20:02;5.83;;;1.60;;
59530;SDS011;45349;48.692;8.186;2024-01-27T09:22:29;6.03;;;1.83;;
59530;SDS011;45349;48.692;8.186;2024-01-27T09:24:56;7.43;;;2.77;;
59530;SDS011;45349;48.692;8.186;2024-01-27T09:27:22;15.23;;;6.40;;
59530;SDS011;45349;48.692;8.186;2024-01-27T09:29:49;13.30;;;6.40;;
59530;SDS011;45349;48.692;8.186;2024-01-27T09:32:17;16.53;;;6.63;;
59530;SDS011;45349;48.692;8.186;2024-01-27T09:34:44;12.77;;;6.13;;
59530;SDS011;45349;48.692;8.186;2024-01-27T09:37:11;14.23;;;3.90;;
59530;SDS011;45349;48.692;8.186;2024-01-27T09:39:38;11.20;;;5.90;;
59530;SDS011;45349;48.692;8.186;2024-01-27T09:42:06;9.07;;;5.37;;
59530;SDS011;45349;48.692;8.186;2024-01-27T09:44:34;19.63;;;8.60;;
59530;SDS011;45349;48.692;8.186;2024-01-27T09:47:01;14.83;;;7.27;;
59530;SDS011;45349;48.692;8.186;2024-01-27T09:49:30;17.20;;;8.17;;
59530;SDS011;45349;48.692;8.186;2024-01-27T09:51:57;17.23;;;7.30;;
59530;SDS011;45349;48.692;8.186;2024-01-27T09:54:24;12.43;;;5.87;;
59530;SDS011;45349;48.692;8.186;2024-01-27T09:56:51;11.30;;;6.60;;
59530;SDS011;45349;48.692;8.186;2024-01-27T09:59:18;15.37;;;6.57;;
59530;SDS011;45349;48.692;8.186;2024-01-27T10:01:47;13.00;;;6.73;;
59530;SDS011;45349;48.692;8.186;2024-01-27T10:04:16;14.40;;;7.43;;
59530;SDS011;45349;48.692;8.186;2024-01-27T10:06:46;15.87;;;8.17;;
59530;SDS011;45349;48.692;8.186;2024-01-27T10:09:16;12.83;;;6.33;;
59530;SDS011;45349;48.692;8.186;2024-01-27T10:11:45;14.27;;;7.07;;
59530;SDS011;45349;48.692;8.186;2024-01-27T10:14:13;14.63;;;7.43;;
59530;SDS011;45349;48.692;8.186;2024-01-27T10:16:40;19.40;;;7.87;;
59530;SDS011;45349;48.692;8.186;2024-01-27T10:19:08;15.57;;;8.47;;
59530;SDS011;45349;48.692;8.186;2024-01-27T10:21:41;21.30;;;8.00;;
59530;SDS011;45349;48.692;8.186;2024-01-27T10:24:09;22.93;;;11.17;;
59530;SDS011;45349;48.692;8.186;2024-01-27T10:26:35;14.43;;;8.27;;
59530;SDS011;45349;48.692;8.186;2024-01-27T10:29:02;17.17;;;8.60;;
59530;SDS011;45349;48.692;8.186;2024-01-27T10:31:29;20.43;;;8.40;;
59530;SDS011;45349;48.692;8.186;2024-01-27T10:33:57;18.70;;;8.03;;
59530;SDS011;45349;48.692;8.186;2024-01-27T10:36:24;14.80;;;8.00;;
59530;SDS011;45349;48.692;8.186;2024-01-27T10:38:52;22.20;;;9.97;;
59530;SDS011;45349;48.692;8.186;2024-01-27T10:41:21;23.57;;;9.67;;
59530;SDS011;45349;48.692;8.186;2024-01-27T10:43:49;16.70;;;9.53;;
59530;SDS011;45349;48.692;8.186;2024-01-27T10:46:18;17.23;;;9.03;;
59530;SDS011;45349;48.692;8.186;2024-01-27T10:48:47;15.87;;;9.27;;
59530;SDS011;45349;48.692;8.186;2024-01-27T10:51:16;21.23;;;9.87;;
59530;SDS011;45349;48.692;8.186;2024-01-27T10:53:49;16.20;;;8.97;;
59530;SDS011;45349;48.692;8.186;2024-01-27T10:56:21;19.97;;;9.50;;
59530;SDS011;45349;48.692;8.186;2024-01-27T10:58:49;17.17;;;9.77;;
59530;SDS011;45349;48.692;8.186;2024-01-27T11:01:18;20.40;;;8.90;;
59530;SDS011;45349;48.692;8.186;2024-01-27T11:03:48;16.77;;;8.67;;
59530;SDS011;45349;48.692;8.186;2024-01-27T11:06:16;20.93;;;10.33;;
59530;SDS011;45349;48.692;8.186;2024-01-27T11:08:46;18.52;;;9.90;;
59530;SDS011;45349;48.692;8.186;2024-01-27T11:11:14;23.20;;;12.40;;
59530;SDS011;45349;48.692;8.186;2024-01-27T11:13:42;25.13;;;12.37;;
59530;SDS011;45349;48.692;8.186;2024-01-27T11:16:16;20.20;;;10.23;;
59530;SDS011;45349;48.692;8.186;2024-01-27T11:18:43;19.50;;;9.50;;
59530;SDS011;45349;48.692;8.186;2024-01-27T11:21:13;24.00;;;8.80;;
59530;SDS011;45349;48.692;8.186;2024-01-27T11:23:40;20.93;;;9.40;;
59530;SDS011;45349;48.692;8.186;2024-01-27T11:26:07;18.10;;;8.90;;
59530;SDS011;45349;48.692;8.186;2024-01-27T11:28:34;16.20;;;8.17;;
59530;SDS011;45349;48.692;8.186;2024-01-27T11:31:06;19.97;;;9.00;;
59530;SDS011;45349;48.692;8.186;2024-01-27T11:33:40;18.30;;;9.57;;
59530;SDS011;45349;48.692;8.186;2024-01-27T11:36:07;19.87;;;9.10;;
59530;SDS011;45349;48.692;8.186;2024-01-27T11:38:34;20.53;;;9.30;;
59530;SDS011;45349;48.692;8.186;2024-01-27T11:41:01;22.63;;;8.87;;
59530;SDS011;45349;48.692;8.186;2024-01-27T11:43:29;16.17;;;8.83;;
59530;SDS011;45349;48.692;8.186;2024-01-27T11:45:56;18.80;;;9.97;;
59530;SDS011;45349;48.692;8.186;2024-01-27T11:48:24;17.90;;;10.47;;
59530;SDS011;45349;48.692;8.186;2024-01-27T11:51:01;17.40;;;8.10;;
59530;SDS011;45349;48.692;8.186;2024-01-27T11:53:29;24.13;;;13.17;;
59530;SDS011;45349;48.692;8.186;2024-01-27T11:55:56;16.53;;;8.27;;
59530;SDS011;45349;48.692;8.186;2024-01-27T11:58:28;17.93;;;7.63;;
59530;SDS011;45349;48.692;8.186;2024-01-27T12:00:56;15.37;;;7.20;;
59530;SDS011;45349;48.692;8.186;2024-01-27T12:03:27;13.50;;;6.80;;
59530;SDS011;45349;48.692;8.186;2024-01-27T12:05:55;13.90;;;7.47;;
59530;SDS011;45349;48.692;8.186;2024-01-27T12:08:22;19.27;;;8.43;;
59530;SDS011;45349;48.692;8.186;2024-01-27T12:10:49;18.30;;;7.70;;
59530;SDS011;45349;48.692;8.186;2024-01-27T12:13:15;19.57;;;9.07;;
59530;SDS011;45349;48.692;8.186;2024-01-27T12:15:42;24.83;;;10.67;;
59530;SDS011;45349;48.692;8.186;2024-01-27T12:18:09;18.77;;;9.23;;
59530;SDS011;45349;48.692;8.186;2024-01-27T12:20:38;21.27;;;9.30;;
59530;SDS011;45349;48.692;8.186;2024-01-27T12:23:05;21.30;;;9.50;;
59530;SDS011;45349;48.692;8.186;2024-01-27T12:25:32;22.50;;;9.83;;
59530;SDS011;45349;48.692;8.186;2024-01-27T12:28:01;19.17;;;9.80;;
59530;SDS011;45349;48.692;8.186;2024-01-27T12:30:28;18.60;;;9.83;;
59530;SDS011;45349;48.692;8.186;2024-01-27T12:32:55;19.20;;;9.60;;
59530;SDS011;45349;48.692;8.186;2024-01-27T12:35:23;19.07;;;10.00;;
59530;SDS011;45349;48.692;8.186;2024-01-27T12:37:51;16.73;;;9.20;;
59530;SDS011;45349;48.692;8.186;2024-01-27T12:40:19;24.70;;;10.97;;
59530;SDS011;45349;48.692;8.186;2024-01-27T12:42:46;18.17;;;10.27;;
59530;SDS011;45349;48.692;8.186;2024-01-27T12:45:13;19.87;;;10.07;;
59530;SDS011;45349;48.692;8.186;2024-01-27T12:47:40;22.13;;;10.13;;
59530;SDS011;45349;48.692;8.186;2024-01-27T12:50:07;19.47;;;9.30;;
59530;SDS011;45349;48.692;8.186;2024-01-27T12:52:35;23.50;;;10.00;;
59530;SDS011;45349;48.692;8.186;2024-01-27T12:55:03;19.23;;;9.53;;
59530;SDS011;45349;48.692;8.186;2024-01-27T12:57:33;18.37;;;9.40;;
59530;SDS011;45349;48.692;8.186;2024-01-27T13:00:00;20.37;;;8.87;;
59530;SDS011;45349;48.692;8.186;2024-01-27T13:02:29;17.43;;;8.20;;
59530;SDS011;45349;48.692;8.186;2024-01-27T13:04:55;17.80;;;8.67;;
59530;SDS011;45349;48.692;8.186;2024-01-27T13:07:22;13.87;;;8.37;;
59530;SDS011;45349;48.692;8.186;2024-01-27T13:09:49;17.23;;;7.50;;
59530;SDS011;45349;48.692;8.186;2024-01-27T13:12:17;14.77;;;8.47;;
59530;SDS011;45349;48.692;8.186;2024-01-27T13:14:43;13.57;;;7.20;;
59530;SDS011;45349;48.692;8.186;2024-01-27T13:17:10;12.40;;;7.13;;
59530;SDS011;45349;48.692;8.186;2024-01-27T13:19:39;15.53;;;8.50;;
59530;SDS011;45349;48.692;8.186;2024-01-27T13:22:06;16.60;;;7.47;;
59530;SDS011;45349;48.692;8.186;2024-01-27T13:24:32;18.20;;;8.20;;
59530;SDS011;45349;48.692;8.186;2024-01-27T13:26:59;16.60;;;7.37;;
59530;SDS011;45349;48.692;8.186;2024-01-27T13:29:27;14.37;;;6.63;;
59530;SDS011;45349;48.692;8.186;2024-01-27T13:31:54;18.20;;;7.50;;
59530;SDS011;45349;48.692;8.186;2024-01-27T13:34:23;13.23;;;6.70;;
59530;SDS011;45349;48.692;8.186;2024-01-27T13:36:50;16.20;;;6.17;;
59530;SDS011;45349;48.692;8.186;2024-01-27T13:39:16;18.37;;;6.10;;
59530;SDS011;45349;48.692;8.186;2024-01-27T13:41:43;12.13;;;6.67;;
59530;SDS011;45349;48.692;8.186;2024-01-27T13:44:10;14.33;;;7.30;;
59530;SDS011;45349;48.692;8.186;2024-01-27T13:46:38;16.83;;;5.30;;
59530;SDS011;45349;48.692;8.186;2024-01-27T13:49:04;13.53;;;5.70;;
59530;SDS011;45349;48.692;8.186;2024-01-27T13:51:31;13.30;;;5.73;;
59530;SDS011;45349;48.692;8.186;2024-01-27T13:53:58;10.90;;;4.70;;
59530;SDS011;45349;48.692;8.186;2024-01-27T13:56:24;13.80;;;6.07;;
59530;SDS011;45349;48.692;8.186;2024-01-27T13:58:51;12.87;;;4.20;;
59530;SDS011;45349;48.692;8.186;2024-01-27T14:01:18;11.93;;;4.50;;
59530;SDS011;45349;48.692;8.186;2024-01-27T14:03:46;12.87;;;4.50;;
59530;SDS011;45349;48.692;8.186;2024-01-27T14:06:13;10.30;;;4.00;;
59530;SDS011;45349;48.692;8.186;2024-01-27T14:08:39;9.93;;;3.43;;
59530;SDS011;45349;48.692;8.186;2024-01-27T14:11:06;9.57;;;3.80;;
59530;SDS011;45349;48.692;8.186;2024-01-27T14:13:33;11.43;;;4.47;;
59530;SDS011;45349;48.692;8.186;2024-01-27T14:16:00;9.37;;;3.47;;
59530;SDS011;45349;48.692;8.186;2024-01-27T14:18:29;9.20;;;3.27;;
59530;SDS011;45349;48.692;8.186;2024-01-27T14:20:58;8.97;;;3.47;;
59530;SDS011;45349;48.692;8.186;2024-01-27T14:23:28;9.53;;;3.40;;
59530;SDS011;45349;48.692;8.186;2024-01-27T14:25:56;8.70;;;3.73;;
59530;SDS011;45349;48.692;8.186;2024-01-27T14:28:23;10.67;;;3.83;;
59530;SDS011;45349;48.692;8.186;2024-01-27T14:30:51;9.67;;;4.17;;
59530;SDS011;45349;48.692;8.186;2024-01-27T14:33:18;6.97;;;3.27;;
59530;SDS011;45349;48.692;8.186;2024-01-27T14:35:46;10.67;;;3.93;;
59530;SDS011;45349;48.692;8.186;2024-01-27T14:38:14;12.37;;;3.60;;
59530;SDS011;45349;48.692;8.186;2024-01-27T14:40:40;7.60;;;3.87;;
59530;SDS011;45349;48.692;8.186;2024-01-27T14:43:07;8.13;;;3.57;;